createdAt,value
2019-03-20T00:00:19.320Z,1.79
2019-03-20T00:01:19.654Z,1.82
2019-03-20T00:02:19.947Z,1.75
2019-03-20T00:03:20.355Z,1.85
2019-03-20T00:04:20.588Z,1.85
2019-03-20T00:05:20.920Z,1.88
2019-03-20T00:06:21.255Z,1.92
2019-03-20T00:07:21.517Z,1.92
2019-03-20T00:08:21.879Z,1.92
2019-03-20T00:09:22.165Z,1.84
2019-03-20T00:10:22.479Z,1.88
2019-03-20T00:11:22.813Z,1.79
2019-03-20T00:12:23.086Z,1.75
2019-03-20T00:13:23.429Z,1.70
2019-03-20T00:14:23.790Z,1.71
2019-03-20T00:15:24.086Z,1.71
2019-03-20T00:16:24.394Z,1.67
2019-03-20T00:17:24.687Z,1.63
2019-03-20T00:18:25.008Z,1.56
2019-03-20T00:19:25.317Z,1.46
2019-03-20T00:20:25.648Z,1.63
2019-03-20T00:21:25.965Z,1.57
2019-03-20T00:22:26.293Z,1.61
2019-03-20T00:23:26.696Z,1.63
2019-03-20T00:24:26.903Z,1.58
2019-03-20T00:25:27.218Z,1.58
2019-03-20T00:26:27.548Z,1.60
2019-03-20T00:27:27.846Z,1.56
2019-03-20T00:28:28.193Z,1.46
2019-03-20T00:29:28.461Z,1.36
2019-03-20T00:30:28.789Z,1.46
2019-03-20T00:31:29.226Z,1.30
2019-03-20T00:32:29.412Z,1.30
2019-03-20T00:33:29.762Z,1.25
2019-03-20T00:34:30.031Z,1.21
2019-03-20T00:35:30.363Z,1.12
2019-03-20T00:36:30.692Z,1.22
2019-03-20T00:37:31.032Z,1.24
2019-03-20T00:38:31.339Z,1.30
2019-03-20T00:39:31.653Z,1.27
2019-03-20T00:40:31.904Z,1.36
2019-03-20T00:41:32.251Z,1.42
2019-03-20T00:42:32.547Z,1.48
2019-03-20T00:43:32.884Z,1.52
2019-03-20T00:44:33.178Z,1.61
2019-03-20T00:45:33.475Z,1.46
2019-03-20T00:46:33.823Z,1.50
2019-03-20T00:47:34.221Z,1.53
2019-03-20T00:48:34.692Z,1.50
2019-03-20T00:49:34.768Z,1.50
2019-03-20T00:50:35.082Z,1.45
2019-03-20T00:51:35.394Z,1.40
2019-03-20T00:52:35.695Z,1.32
2019-03-20T00:53:36.052Z,1.24
2019-03-20T00:54:36.365Z,1.27
2019-03-20T00:55:36.710Z,1.21
2019-03-20T00:56:37.024Z,1.24
2019-03-20T00:57:37.289Z,1.21
2019-03-20T00:58:39.583Z,1.21
2019-03-20T00:59:37.949Z,1.22
2019-03-20T01:00:38.251Z,1.27
2019-03-20T01:01:38.580Z,1.14
2019-03-20T01:02:38.876Z,1.24
2019-03-20T01:03:39.194Z,1.18
2019-03-20T01:04:39.658Z,1.10
2019-03-20T01:05:39.820Z,1.06
2019-03-20T01:06:40.152Z,1.02
2019-03-20T01:07:40.435Z,0.95
2019-03-20T01:08:40.760Z,0.91
2019-03-20T01:09:41.105Z,0.96
2019-03-20T01:10:41.401Z,0.89
2019-03-20T01:11:41.736Z,0.82
2019-03-20T01:12:42.147Z,0.81
2019-03-20T01:13:42.339Z,0.70
2019-03-20T01:14:42.695Z,0.74
2019-03-20T01:15:42.983Z,0.64
2019-03-20T01:16:43.314Z,0.64
2019-03-20T01:17:43.619Z,0.82
2019-03-20T01:18:43.909Z,0.81
2019-03-20T01:19:44.252Z,0.82
2019-03-20T01:20:44.601Z,0.67
2019-03-20T01:21:44.872Z,0.64
2019-03-20T01:22:45.175Z,0.66
2019-03-20T01:23:45.544Z,0.61
2019-03-20T01:24:45.827Z,0.64
2019-03-20T01:25:46.108Z,0.78
2019-03-20T01:26:46.448Z,0.81
2019-03-20T01:27:46.749Z,0.95
2019-03-20T01:28:47.095Z,0.99
2019-03-20T01:29:47.381Z,0.95
2019-03-20T01:30:47.662Z,1.00
2019-03-20T01:31:48.016Z,1.06
2019-03-20T01:32:48.316Z,1.06
2019-03-20T01:33:48.638Z,1.02
2019-03-20T01:34:48.989Z,0.95
2019-03-20T01:35:49.268Z,1.00
2019-03-20T01:36:49.614Z,0.91
2019-03-20T01:37:49.971Z,0.92
2019-03-20T01:38:50.238Z,0.76
2019-03-20T01:39:50.540Z,0.81
2019-03-20T01:40:50.844Z,0.74
2019-03-20T01:41:51.160Z,0.70
2019-03-20T01:42:51.471Z,0.68
2019-03-20T01:43:51.838Z,0.76
2019-03-20T01:44:52.135Z,0.77
2019-03-20T01:45:52.549Z,0.76
2019-03-20T01:46:52.727Z,0.73
2019-03-20T01:47:53.054Z,0.76
2019-03-20T01:48:53.373Z,0.77
2019-03-20T01:49:53.715Z,0.74
2019-03-20T01:50:54.003Z,0.77
2019-03-20T01:51:54.310Z,0.63
2019-03-20T01:52:54.618Z,0.73
2019-03-20T01:53:55.067Z,0.73
2019-03-20T01:54:55.271Z,0.63
2019-03-20T01:55:55.566Z,0.63
2019-03-20T01:56:55.877Z,0.58
2019-03-20T01:57:56.190Z,0.59
2019-03-20T01:58:56.506Z,0.61
2019-03-20T01:59:56.869Z,0.51
2019-03-20T02:00:57.155Z,0.49
2019-03-20T02:01:57.501Z,0.51
2019-03-20T02:02:57.783Z,0.48
2019-03-20T02:03:58.069Z,0.45
2019-03-20T02:04:58.425Z,0.45
2019-03-20T02:05:58.728Z,0.49
2019-03-20T02:06:59.039Z,0.49
2019-03-20T02:07:59.370Z,0.56
2019-03-20T02:08:59.673Z,0.52
2019-03-20T02:10:00.030Z,0.63
2019-03-20T02:11:00.346Z,0.52
2019-03-20T02:12:00.622Z,0.52
2019-03-20T02:13:00.948Z,0.52
2019-03-20T02:14:01.254Z,0.59
2019-03-20T02:15:01.594Z,0.48
2019-03-20T02:16:01.870Z,0.49
2019-03-20T02:17:02.192Z,0.51
2019-03-20T02:18:02.546Z,0.52
2019-03-20T02:19:02.916Z,0.55
2019-03-20T02:20:03.151Z,0.52
2019-03-20T02:21:03.435Z,0.58
2019-03-20T02:22:03.765Z,0.52
2019-03-20T02:23:04.097Z,0.56
2019-03-20T02:24:04.396Z,0.52
2019-03-20T02:25:04.736Z,0.45
2019-03-20T02:26:05.007Z,0.40
2019-03-20T02:27:05.455Z,0.42
2019-03-20T02:28:05.931Z,0.44
2019-03-20T02:29:05.994Z,0.44
2019-03-20T02:30:06.336Z,0.44
2019-03-20T02:31:06.628Z,0.34
2019-03-20T02:32:06.924Z,0.30
2019-03-20T02:33:07.270Z,0.34
2019-03-20T02:34:07.569Z,0.26
2019-03-20T02:35:07.984Z,0.26
2019-03-20T02:36:08.177Z,0.23
2019-03-20T02:37:08.499Z,0.19
2019-03-20T02:38:08.827Z,0.16
2019-03-20T02:39:09.146Z,0.15
2019-03-20T02:40:09.750Z,0.08
2019-03-20T02:41:09.779Z,0.08
2019-03-20T02:42:10.090Z,0.08
2019-03-20T02:43:10.441Z,0.11
2019-03-20T02:44:10.698Z,0.00
2019-03-20T02:45:11.060Z,-0.07
2019-03-20T02:46:11.332Z,-0.02
2019-03-20T02:47:11.655Z,-0.03
2019-03-20T02:48:11.986Z,-0.03
2019-03-20T02:49:12.278Z,0.06
2019-03-20T02:50:12.652Z,0.05
2019-03-20T02:51:12.957Z,-0.10
2019-03-20T02:52:13.322Z,-0.09
2019-03-20T02:53:13.562Z,0.06
2019-03-20T02:54:13.842Z,-0.05
2019-03-20T02:55:14.181Z,-0.05
2019-03-20T02:56:14.486Z,-0.03
2019-03-20T02:57:17.241Z,-0.06
2019-03-20T02:58:15.134Z,-0.06
2019-03-20T02:59:15.442Z,-0.06
2019-03-20T03:00:15.841Z,-0.12
2019-03-20T03:01:16.073Z,-0.09
2019-03-20T03:02:16.387Z,-0.09
2019-03-20T03:03:16.715Z,-0.10
2019-03-20T03:04:17.010Z,-0.09
2019-03-20T03:05:17.321Z,-0.10
2019-03-20T03:06:17.661Z,-0.07
2019-03-20T03:07:17.967Z,0.05
2019-03-20T03:08:18.415Z,-0.05
2019-03-20T03:09:18.582Z,-0.03
2019-03-20T03:10:18.915Z,0.09
2019-03-20T03:11:19.221Z,0.12
2019-03-20T03:12:19.603Z,0.09
2019-03-20T03:13:19.852Z,0.08
2019-03-20T03:14:20.150Z,-0.02
2019-03-20T03:15:20.472Z,0.08
2019-03-20T03:16:20.809Z,0.02
2019-03-20T03:17:21.083Z,0.01
2019-03-20T03:18:21.433Z,-0.02
2019-03-20T03:19:21.711Z,0.02
2019-03-20T03:20:22.036Z,0.06
2019-03-20T03:21:22.356Z,-0.03
2019-03-20T03:22:22.636Z,0.06
2019-03-20T03:23:22.984Z,-0.09
2019-03-20T03:24:23.364Z,-0.03
2019-03-20T03:25:23.609Z,0.08
2019-03-20T03:26:23.935Z,0.05
2019-03-20T03:27:24.217Z,-0.03
2019-03-20T03:28:24.547Z,0.00
2019-03-20T03:29:24.864Z,-0.02
2019-03-20T03:30:25.216Z,0.00
2019-03-20T03:31:25.560Z,-0.03
2019-03-20T03:32:25.824Z,0.00
2019-03-20T03:33:26.467Z,0.09
2019-03-20T03:34:26.433Z,-0.03
2019-03-20T03:35:26.781Z,0.02
2019-03-20T03:36:27.079Z,0.00
2019-03-20T03:37:27.396Z,0.02
2019-03-20T03:38:27.710Z,-0.06
2019-03-20T03:39:27.988Z,-0.07
2019-03-20T03:40:28.351Z,-0.10
2019-03-20T03:41:28.751Z,-0.03
2019-03-20T03:42:28.940Z,0.06
2019-03-20T03:43:29.254Z,0.09
2019-03-20T03:44:29.581Z,-0.03
2019-03-20T03:45:29.921Z,-0.10
2019-03-20T03:46:30.251Z,-0.12
2019-03-20T03:47:30.546Z,-0.12
2019-03-20T03:48:30.876Z,-0.21
2019-03-20T03:49:31.264Z,-0.26
2019-03-20T03:50:31.677Z,-0.35
2019-03-20T03:51:31.815Z,-0.33
2019-03-20T03:52:32.109Z,-0.23
2019-03-20T03:53:32.459Z,-0.30
2019-03-20T03:54:32.732Z,-0.36
2019-03-20T03:55:33.068Z,-0.28
2019-03-20T03:56:33.378Z,-0.31
2019-03-20T03:57:33.730Z,-0.35
2019-03-20T03:58:33.982Z,-0.33
2019-03-20T03:59:34.296Z,-0.39
2019-03-20T04:00:34.619Z,-0.36
2019-03-20T04:01:34.919Z,-0.42
2019-03-20T04:02:35.236Z,-0.44
2019-03-20T04:03:35.553Z,-0.35
2019-03-20T04:04:35.889Z,-0.42
2019-03-20T04:05:36.244Z,-0.45
2019-03-20T04:06:36.832Z,-0.36
2019-03-20T04:07:36.862Z,-0.45
2019-03-20T04:08:37.184Z,-0.39
2019-03-20T04:09:37.574Z,-0.36
2019-03-20T04:10:37.851Z,-0.48
2019-03-20T04:11:38.192Z,-0.44
2019-03-20T04:12:38.467Z,-0.49
2019-03-20T04:13:38.781Z,-0.44
2019-03-20T04:14:39.316Z,-0.46
2019-03-20T04:15:39.441Z,-0.54
2019-03-20T04:16:39.766Z,-0.48
2019-03-20T04:17:40.023Z,-0.54
2019-03-20T04:18:40.367Z,-0.44
2019-03-20T04:19:40.696Z,-0.46
2019-03-20T04:20:40.993Z,-0.44
2019-03-20T04:21:41.335Z,-0.46
2019-03-20T04:22:41.713Z,-0.48
2019-03-20T04:23:41.952Z,-0.48
2019-03-20T04:24:42.277Z,-0.41
2019-03-20T04:25:42.575Z,-0.42
2019-03-20T04:26:42.920Z,-0.54
2019-03-20T04:27:43.209Z,-0.53
2019-03-20T04:28:43.499Z,-0.51
2019-03-20T04:29:43.840Z,-0.53
2019-03-20T04:30:44.203Z,-0.59
2019-03-20T04:31:44.496Z,-0.54
2019-03-20T04:32:44.774Z,-0.60
2019-03-20T04:33:45.089Z,-0.64
2019-03-20T04:34:45.411Z,-0.64
2019-03-20T04:35:45.719Z,-0.67
2019-03-20T04:36:48.120Z,-0.62
2019-03-20T04:37:46.352Z,-0.57
2019-03-20T04:38:46.702Z,-0.59
2019-03-20T04:39:46.973Z,-0.57
2019-03-20T04:40:47.261Z,-0.57
2019-03-20T04:41:47.631Z,-0.51
2019-03-20T04:42:47.910Z,-0.57
2019-03-20T04:43:48.234Z,-0.63
2019-03-20T04:44:48.565Z,-0.57
2019-03-20T04:45:48.858Z,-0.57
2019-03-20T04:46:49.256Z,-0.63
2019-03-20T04:47:49.551Z,-0.62
2019-03-20T04:48:49.801Z,-0.62
2019-03-20T04:49:50.133Z,-0.54
2019-03-20T04:50:50.429Z,-0.57
2019-03-20T04:51:50.756Z,-0.57
2019-03-20T04:52:51.060Z,-0.62
2019-03-20T04:53:51.389Z,-0.64
2019-03-20T04:54:51.730Z,-0.63
2019-03-20T04:55:52.180Z,-0.62
2019-03-20T04:56:52.357Z,-0.77
2019-03-20T04:57:52.644Z,-0.77
2019-03-20T04:58:52.957Z,-0.67
2019-03-20T04:59:53.298Z,-0.72
2019-03-20T05:00:53.592Z,-0.67
2019-03-20T05:01:53.949Z,-0.69
2019-03-20T05:02:54.214Z,-0.78
2019-03-20T05:03:54.663Z,-0.78
2019-03-20T05:04:54.874Z,-0.70
2019-03-20T05:05:55.179Z,-0.69
2019-03-20T05:06:58.926Z,-0.64
2019-03-20T05:07:55.793Z,-0.69
2019-03-20T05:08:56.110Z,-0.72
2019-03-20T05:09:56.454Z,-0.63
2019-03-20T05:10:56.755Z,-0.63
2019-03-20T05:11:57.128Z,-0.59
2019-03-20T05:12:57.381Z,-0.57
2019-03-20T05:13:57.687Z,-0.54
2019-03-20T05:14:58.043Z,-0.44
2019-03-20T05:15:58.362Z,-0.53
2019-03-20T05:16:58.695Z,-0.46
2019-03-20T05:17:58.993Z,-0.46
2019-03-20T05:18:59.354Z,-0.42
2019-03-20T05:19:59.646Z,-0.42
2019-03-20T05:20:59.935Z,-0.48
2019-03-20T05:22:00.266Z,-0.46
2019-03-20T05:23:00.579Z,-0.39
2019-03-20T05:24:00.867Z,-0.39
2019-03-20T05:25:01.215Z,-0.41
2019-03-20T05:26:01.485Z,-0.44
2019-03-20T05:27:01.843Z,-0.39
2019-03-20T05:28:02.159Z,-0.36
2019-03-20T05:29:02.550Z,-0.42
2019-03-20T05:30:02.774Z,-0.42
2019-03-20T05:31:03.052Z,-0.41
2019-03-20T05:32:03.414Z,-0.35
2019-03-20T05:33:03.781Z,-0.31
2019-03-20T05:34:04.013Z,-0.30
2019-03-20T05:35:04.347Z,-0.35
2019-03-20T05:36:04.636Z,-0.35
2019-03-20T05:37:10.286Z,-0.28
2019-03-20T05:38:06.287Z,-0.30
2019-03-20T05:39:05.607Z,-0.20
2019-03-20T05:40:05.926Z,-0.30
2019-03-20T05:41:06.201Z,-0.23
2019-03-20T05:42:06.554Z,-0.26
2019-03-20T05:43:07.092Z,-0.17
2019-03-20T05:44:07.172Z,-0.21
2019-03-20T05:45:07.553Z,-0.28
2019-03-20T05:46:07.793Z,-0.23
2019-03-20T05:47:08.112Z,-0.26
2019-03-20T05:48:08.437Z,-0.21
2019-03-20T05:49:08.750Z,-0.24
2019-03-20T05:50:09.084Z,-0.10
2019-03-20T05:51:09.378Z,-0.18
2019-03-20T05:52:09.762Z,-0.05
2019-03-20T05:53:10.089Z,-0.05
2019-03-20T05:54:10.304Z,-0.10
2019-03-20T05:55:10.710Z,-0.09
2019-03-20T05:56:10.955Z,-0.09
2019-03-20T05:57:12.527Z,-0.02
2019-03-20T05:58:11.598Z,-0.03
2019-03-20T05:59:11.884Z,-0.07
2019-03-20T06:00:12.217Z,0.06
2019-03-20T06:01:12.555Z,0.01
2019-03-20T06:02:12.929Z,0.12
2019-03-20T06:03:13.178Z,0.12
2019-03-20T06:04:13.456Z,0.23
2019-03-20T06:05:13.790Z,0.29
2019-03-20T06:06:14.105Z,0.27
2019-03-20T06:07:21.179Z,0.37
2019-03-20T06:08:15.762Z,0.34
2019-03-20T06:09:15.059Z,0.45
2019-03-20T06:10:15.678Z,0.44
2019-03-20T06:11:15.659Z,0.47
2019-03-20T06:12:15.975Z,0.55
2019-03-20T06:13:16.336Z,0.47
2019-03-20T06:14:16.598Z,0.55
2019-03-20T06:15:16.919Z,0.66
2019-03-20T06:16:17.212Z,0.71
2019-03-20T06:17:17.559Z,0.68
2019-03-20T06:18:17.987Z,0.74
2019-03-20T06:19:18.168Z,0.76
2019-03-20T06:20:18.470Z,0.85
2019-03-20T06:21:18.782Z,0.73
2019-03-20T06:22:19.123Z,0.92
2019-03-20T06:23:19.443Z,0.89
2019-03-20T06:24:19.749Z,0.94
2019-03-20T06:25:21.322Z,0.92
2019-03-20T06:26:20.396Z,0.94
2019-03-20T06:27:20.703Z,1.03
2019-03-20T06:28:21.056Z,1.06
2019-03-20T06:29:21.334Z,1.13
2019-03-20T06:30:21.643Z,1.09
2019-03-20T06:31:21.975Z,1.16
2019-03-20T06:32:22.272Z,1.20
2019-03-20T06:33:22.621Z,1.22
2019-03-20T06:34:22.951Z,1.28
2019-03-20T06:35:23.208Z,1.28
2019-03-20T06:36:23.554Z,1.42
2019-03-20T06:37:32.248Z,1.40
2019-03-20T06:38:25.184Z,1.50
2019-03-20T06:39:24.481Z,1.48
2019-03-20T06:40:24.813Z,1.48
2019-03-20T06:41:25.225Z,1.56
2019-03-20T06:42:25.471Z,1.64
2019-03-20T06:43:25.843Z,1.76
2019-03-20T06:44:26.065Z,1.75
2019-03-20T06:45:26.396Z,1.75
2019-03-20T06:46:26.711Z,1.84
2019-03-20T06:47:26.997Z,1.86
2019-03-20T06:48:27.362Z,2.00
2019-03-20T06:49:27.615Z,1.92
2019-03-20T06:50:27.957Z,2.04
2019-03-20T06:51:28.418Z,2.07
2019-03-20T06:52:28.585Z,2.08
2019-03-20T06:53:28.927Z,2.10
2019-03-20T06:54:29.187Z,2.22
2019-03-20T06:55:29.528Z,2.28
2019-03-20T06:56:29.875Z,2.26
2019-03-20T06:57:30.174Z,2.34
2019-03-20T06:58:30.538Z,2.36
2019-03-20T06:59:30.869Z,2.34
2019-03-20T07:00:31.097Z,2.33
2019-03-20T07:01:31.450Z,2.51
2019-03-20T07:02:31.746Z,2.57
2019-03-20T07:03:32.102Z,2.59
2019-03-20T07:04:32.367Z,2.58
2019-03-20T07:05:32.675Z,2.55
2019-03-20T07:06:33.021Z,2.73
2019-03-20T07:07:43.217Z,2.70
2019-03-20T07:08:34.660Z,2.88
2019-03-20T07:09:33.950Z,2.88
2019-03-20T07:10:34.268Z,2.90
2019-03-20T07:11:34.572Z,3.00
2019-03-20T07:12:34.890Z,2.98
2019-03-20T07:13:35.500Z,3.11
2019-03-20T07:14:35.529Z,3.08
2019-03-20T07:15:35.890Z,3.13
2019-03-20T07:16:36.199Z,3.19
2019-03-20T07:17:36.493Z,3.27
2019-03-20T07:18:36.853Z,3.30
2019-03-20T07:19:37.123Z,3.34
2019-03-20T07:20:37.672Z,3.41
2019-03-20T07:21:37.766Z,3.34
2019-03-20T07:22:38.057Z,3.46
2019-03-20T07:23:38.409Z,3.50
2019-03-20T07:24:38.807Z,3.61
2019-03-20T07:25:39.013Z,3.68
2019-03-20T07:26:39.349Z,3.63
2019-03-20T07:27:39.632Z,3.76
2019-03-20T07:28:39.970Z,3.74
2019-03-20T07:29:40.286Z,3.88
2019-03-20T07:30:40.596Z,3.91
2019-03-20T07:31:40.926Z,3.99
2019-03-20T07:32:41.331Z,4.10
2019-03-20T07:33:41.573Z,4.09
2019-03-20T07:34:41.873Z,4.06
2019-03-20T07:35:42.189Z,4.09
2019-03-20T07:36:42.518Z,4.18
2019-03-20T07:37:42.815Z,4.22
2019-03-20T07:38:43.147Z,4.25
2019-03-20T07:39:43.442Z,4.34
2019-03-20T07:40:43.800Z,4.39
2019-03-20T07:41:44.072Z,4.43
2019-03-20T07:42:44.373Z,4.52
2019-03-20T07:43:44.734Z,4.60
2019-03-20T07:44:45.160Z,4.67
2019-03-20T07:45:45.318Z,4.70
2019-03-20T07:46:45.669Z,4.74
2019-03-20T07:47:46.022Z,4.79
2019-03-20T07:48:46.329Z,4.83
2019-03-20T07:49:46.582Z,4.82
2019-03-20T07:50:46.881Z,4.98
2019-03-20T07:51:47.226Z,5.00
2019-03-20T07:52:47.529Z,5.01
2019-03-20T07:53:47.857Z,5.10
2019-03-20T07:54:48.178Z,5.10
2019-03-20T07:55:48.468Z,5.07
2019-03-20T07:56:48.805Z,5.25
2019-03-20T07:57:49.170Z,5.26
2019-03-20T07:58:49.448Z,5.36
2019-03-20T07:59:49.743Z,5.46
2019-03-20T08:00:50.040Z,5.47
2019-03-20T08:01:50.357Z,5.54
2019-03-20T08:02:50.668Z,5.58
2019-03-20T08:03:51.018Z,5.65
2019-03-20T08:04:51.342Z,5.73
2019-03-20T08:05:51.728Z,5.79
2019-03-20T08:06:51.952Z,5.87
2019-03-20T08:07:52.262Z,5.92
2019-03-20T08:08:52.580Z,5.94
2019-03-20T08:09:52.922Z,6.05
2019-03-20T08:10:53.209Z,6.10
2019-03-20T08:11:53.542Z,6.16
2019-03-20T08:12:53.819Z,6.31
2019-03-20T08:13:54.261Z,6.31
2019-03-20T08:14:54.467Z,6.35
2019-03-20T08:15:54.768Z,6.52
2019-03-20T08:16:55.102Z,6.62
2019-03-20T08:17:55.379Z,6.59
2019-03-20T08:18:55.714Z,6.70
2019-03-20T08:19:56.064Z,6.80
2019-03-20T08:20:56.354Z,6.83
2019-03-20T08:21:56.716Z,6.83
2019-03-20T08:22:56.966Z,6.82
2019-03-20T08:23:57.272Z,6.93
2019-03-20T08:24:57.631Z,6.95
2019-03-20T08:25:57.914Z,7.01
2019-03-20T08:26:58.246Z,7.11
2019-03-20T08:27:58.539Z,7.13
2019-03-20T08:28:58.853Z,7.14
2019-03-20T08:29:59.215Z,7.14
2019-03-20T08:30:59.503Z,7.33
2019-03-20T08:31:59.794Z,7.36
2019-03-20T08:33:00.117Z,7.44
2019-03-20T08:34:00.434Z,7.44
2019-03-20T08:35:00.777Z,7.41
2019-03-20T08:36:01.049Z,7.50
2019-03-20T08:37:02.338Z,7.59
2019-03-20T08:38:01.757Z,7.67
2019-03-20T08:39:02.111Z,7.62
2019-03-20T08:40:02.362Z,7.72
2019-03-20T08:41:02.633Z,7.81
2019-03-20T08:42:02.964Z,7.85
2019-03-20T08:43:03.296Z,7.85
2019-03-20T08:44:03.592Z,7.96
2019-03-20T08:45:03.936Z,8.06
2019-03-20T08:46:04.221Z,8.05
2019-03-20T08:47:04.627Z,8.11
2019-03-20T08:48:04.859Z,8.17
2019-03-20T08:49:05.207Z,8.23
2019-03-20T08:50:05.508Z,8.21
2019-03-20T08:51:05.770Z,8.34
2019-03-20T08:52:06.097Z,8.39
2019-03-20T08:53:06.440Z,8.46
2019-03-20T08:54:06.733Z,8.53
2019-03-20T08:55:07.124Z,8.53
2019-03-20T08:56:07.351Z,8.54
2019-03-20T08:57:07.659Z,8.68
2019-03-20T08:58:07.999Z,8.68
2019-03-20T08:59:08.298Z,8.69
2019-03-20T09:00:08.876Z,8.74
2019-03-20T09:01:08.923Z,8.79
2019-03-20T09:02:09.241Z,8.77
2019-03-20T09:03:09.608Z,8.74
2019-03-20T09:04:09.851Z,8.84
2019-03-20T09:05:10.199Z,8.86
2019-03-20T09:06:10.481Z,8.86
2019-03-20T09:07:10.796Z,8.86
2019-03-20T09:08:11.137Z,8.92
2019-03-20T09:09:11.416Z,9.02
2019-03-20T09:10:11.781Z,8.96
2019-03-20T09:11:12.127Z,8.95
2019-03-20T09:12:12.434Z,8.99
2019-03-20T09:13:12.730Z,9.03
2019-03-20T09:14:13.005Z,9.02
2019-03-20T09:15:13.365Z,9.02
2019-03-20T09:16:13.668Z,9.13
2019-03-20T09:17:13.978Z,9.11
2019-03-20T09:18:14.311Z,9.05
2019-03-20T09:19:14.616Z,9.15
2019-03-20T09:20:15.026Z,9.21
2019-03-20T09:21:15.232Z,9.26
2019-03-20T09:22:15.549Z,9.29
2019-03-20T09:23:15.882Z,9.27
2019-03-20T09:24:16.177Z,9.34
2019-03-20T09:25:16.509Z,9.29
2019-03-20T09:26:16.802Z,9.27
2019-03-20T09:27:17.139Z,9.39
2019-03-20T09:28:17.576Z,9.40
2019-03-20T09:29:18.841Z,9.48
2019-03-20T09:30:18.083Z,9.52
2019-03-20T09:31:18.391Z,9.56
2019-03-20T09:32:18.715Z,9.67
2019-03-20T09:33:19.035Z,9.58
2019-03-20T09:34:19.335Z,9.66
2019-03-20T09:35:19.681Z,9.49
2019-03-20T09:36:19.995Z,9.63
2019-03-20T09:37:20.257Z,9.67
2019-03-20T09:38:20.605Z,9.77
2019-03-20T09:39:20.895Z,9.72
2019-03-20T09:40:23.358Z,9.84
2019-03-20T09:41:21.558Z,9.85
2019-03-20T09:42:21.839Z,9.84
2019-03-20T09:43:22.186Z,9.90
2019-03-20T09:44:22.553Z,9.95
2019-03-20T09:45:22.786Z,10.05
2019-03-20T09:46:23.139Z,10.12
2019-03-20T09:47:24.199Z,10.13
2019-03-20T09:48:23.753Z,10.17
2019-03-20T09:49:24.070Z,10.23
2019-03-20T09:50:24.382Z,10.18
2019-03-20T09:51:24.721Z,10.25
2019-03-20T09:52:25.023Z,10.33
2019-03-20T09:53:25.396Z,10.43
2019-03-20T09:54:25.637Z,10.36
2019-03-20T09:55:25.950Z,10.42
2019-03-20T09:56:26.291Z,10.55
2019-03-20T09:57:26.581Z,10.49
2019-03-20T09:58:26.916Z,10.53
2019-03-20T09:59:27.191Z,10.62
2019-03-20T10:00:27.536Z,10.68
2019-03-20T10:01:27.984Z,10.76
2019-03-20T10:02:28.148Z,10.90
2019-03-20T10:03:28.463Z,10.89
2019-03-20T10:04:28.762Z,10.95
2019-03-20T10:05:29.094Z,10.98
2019-03-20T10:06:30.243Z,11.04
2019-03-20T10:07:29.728Z,11.12
2019-03-20T10:08:30.052Z,11.18
2019-03-20T10:09:30.448Z,11.15
2019-03-20T10:10:30.663Z,11.15
2019-03-20T10:11:30.999Z,11.04
2019-03-20T10:12:31.287Z,11.01
2019-03-20T10:13:31.620Z,11.10
2019-03-20T10:14:31.917Z,11.13
2019-03-20T10:15:32.215Z,11.16
2019-03-20T10:16:32.565Z,11.00
2019-03-20T10:17:32.928Z,10.87
2019-03-20T10:18:33.186Z,10.86
2019-03-20T10:19:33.498Z,10.92
2019-03-20T10:20:33.806Z,10.94
2019-03-20T10:21:34.134Z,10.86
2019-03-20T10:22:34.432Z,10.86
2019-03-20T10:23:34.779Z,10.82
2019-03-20T10:24:35.096Z,10.80
2019-03-20T10:25:43.884Z,10.79
2019-03-20T10:26:36.758Z,10.83
2019-03-20T10:27:36.033Z,10.84
2019-03-20T10:28:36.382Z,10.89
2019-03-20T10:29:36.682Z,10.98
2019-03-20T10:30:36.988Z,10.89
2019-03-20T10:31:37.347Z,10.84
2019-03-20T10:32:37.619Z,10.87
2019-03-20T10:33:37.960Z,11.00
2019-03-20T10:34:39.634Z,11.07
2019-03-20T10:35:38.571Z,11.13
2019-03-20T10:36:38.918Z,11.07
2019-03-20T10:37:39.185Z,11.10
2019-03-20T10:38:39.545Z,11.13
2019-03-20T10:39:40.078Z,11.16
2019-03-20T10:40:40.159Z,11.19
2019-03-20T10:41:40.508Z,11.23
2019-03-20T10:42:40.919Z,11.26
2019-03-20T10:43:41.089Z,11.27
2019-03-20T10:44:41.444Z,11.31
2019-03-20T10:45:41.826Z,11.30
2019-03-20T10:46:42.107Z,11.30
2019-03-20T10:47:47.031Z,11.27
2019-03-20T10:48:42.722Z,11.35
2019-03-20T10:49:43.001Z,11.38
2019-03-20T10:50:43.403Z,11.41
2019-03-20T10:51:43.706Z,11.48
2019-03-20T10:52:43.949Z,11.51
2019-03-20T10:53:44.279Z,11.49
2019-03-20T10:54:44.595Z,11.55
2019-03-20T10:55:44.896Z,11.52
2019-03-20T10:56:45.264Z,11.68
2019-03-20T10:57:45.539Z,11.67
2019-03-20T10:58:45.879Z,11.67
2019-03-20T10:59:46.172Z,11.73
2019-03-20T11:00:46.472Z,11.88
2019-03-20T11:01:46.835Z,11.85
2019-03-20T11:02:47.133Z,11.81
2019-03-20T11:03:47.443Z,11.86
2019-03-20T11:04:47.781Z,11.99
2019-03-20T11:05:48.083Z,11.97
2019-03-20T11:06:48.467Z,12.08
2019-03-20T11:07:48.738Z,12.12
2019-03-20T11:08:49.027Z,12.28
2019-03-20T11:09:49.357Z,12.37
2019-03-20T11:10:49.650Z,12.36
2019-03-20T11:11:50.007Z,12.43
2019-03-20T11:12:50.283Z,12.50
2019-03-20T11:13:50.620Z,12.44
2019-03-20T11:14:50.939Z,12.37
2019-03-20T11:15:51.378Z,12.25
2019-03-20T11:16:51.566Z,12.15
2019-03-20T11:17:51.859Z,12.26
2019-03-20T11:18:52.179Z,12.39
2019-03-20T11:19:52.514Z,12.47
2019-03-20T11:20:53.496Z,12.53
2019-03-20T11:21:53.139Z,12.65
2019-03-20T11:22:53.427Z,12.88
2019-03-20T11:23:53.842Z,13.01
2019-03-20T11:24:54.067Z,13.01
2019-03-20T11:25:54.364Z,13.01
2019-03-20T11:26:54.713Z,13.12
2019-03-20T11:27:54.993Z,13.27
2019-03-20T11:28:55.295Z,13.28
2019-03-20T11:29:55.639Z,13.19
2019-03-20T11:30:55.949Z,13.06
2019-03-20T11:31:56.300Z,12.98
2019-03-20T11:32:56.569Z,13.11
2019-03-20T11:33:56.853Z,13.27
2019-03-20T11:34:57.199Z,13.33
2019-03-20T11:35:57.498Z,13.47
2019-03-20T11:36:57.833Z,13.71
2019-03-20T11:37:58.144Z,13.83
2019-03-20T11:38:58.446Z,13.80
2019-03-20T11:39:58.795Z,13.78
2019-03-20T11:40:59.054Z,13.97
2019-03-20T11:41:59.389Z,13.97
2019-03-20T11:42:59.701Z,13.95
2019-03-20T11:44:00.014Z,13.87
2019-03-20T11:45:00.366Z,14.04
2019-03-20T11:46:00.618Z,14.05
2019-03-20T11:47:00.976Z,14.15
2019-03-20T11:48:01.304Z,14.18
2019-03-20T11:49:01.703Z,14.20
2019-03-20T11:50:01.954Z,14.15
2019-03-20T11:51:02.228Z,14.12
2019-03-20T11:52:02.575Z,14.08
2019-03-20T11:53:02.882Z,14.28
2019-03-20T11:54:03.189Z,14.37
2019-03-20T11:55:03.524Z,14.36
2019-03-20T11:56:03.825Z,14.34
2019-03-20T11:57:04.254Z,14.38
2019-03-20T11:58:04.463Z,14.48
2019-03-20T11:59:04.756Z,14.44
2019-03-20T12:00:05.091Z,14.36
2019-03-20T12:01:05.389Z,14.37
2019-03-20T12:02:05.685Z,14.25
2019-03-20T12:03:06.047Z,14.26
2019-03-20T12:04:06.353Z,14.36
2019-03-20T12:05:06.742Z,14.16
2019-03-20T12:06:06.969Z,14.25
2019-03-20T12:07:07.271Z,14.28
2019-03-20T12:08:07.629Z,14.15
2019-03-20T12:09:07.917Z,14.08
2019-03-20T12:10:08.246Z,14.11
2019-03-20T12:11:08.544Z,14.15
2019-03-20T12:12:08.860Z,14.13
2019-03-20T12:13:09.252Z,14.23
2019-03-20T12:14:09.475Z,14.36
2019-03-20T12:15:09.811Z,14.48
2019-03-20T12:16:10.110Z,14.61
2019-03-20T12:17:10.424Z,14.44
2019-03-20T12:18:10.990Z,14.62
2019-03-20T12:19:11.036Z,14.62
2019-03-20T12:20:11.383Z,14.66
2019-03-20T12:21:11.735Z,14.74
2019-03-20T12:22:12.036Z,14.59
2019-03-20T12:23:12.362Z,14.36
2019-03-20T12:24:12.645Z,14.26
2019-03-20T12:25:12.964Z,14.33
2019-03-20T12:26:13.275Z,14.15
2019-03-20T12:27:15.424Z,14.00
2019-03-20T12:28:14.286Z,13.87
2019-03-20T12:29:14.238Z,13.76
2019-03-20T12:30:14.675Z,13.76
2019-03-20T12:31:14.851Z,13.61
2019-03-20T12:32:15.167Z,13.58
2019-03-20T12:33:15.500Z,13.64
2019-03-20T12:34:15.794Z,13.62
2019-03-20T12:35:16.126Z,13.58
2019-03-20T12:36:16.469Z,13.61
2019-03-20T12:37:16.733Z,13.68
2019-03-20T12:38:17.201Z,13.67
2019-03-20T12:39:17.357Z,13.75
2019-03-20T12:40:17.685Z,13.64
2019-03-20T12:41:17.983Z,13.73
2019-03-20T12:42:18.308Z,13.80
2019-03-20T12:43:18.660Z,13.60
2019-03-20T12:44:18.955Z,13.46
2019-03-20T12:45:19.280Z,13.46
2019-03-20T12:46:19.616Z,13.31
2019-03-20T12:47:19.875Z,13.17
2019-03-20T12:48:20.220Z,13.31
2019-03-20T12:49:20.507Z,13.42
2019-03-20T12:50:20.842Z,13.47
2019-03-20T12:51:21.138Z,13.49
2019-03-20T12:52:21.438Z,13.33
2019-03-20T12:53:21.795Z,13.28
2019-03-20T12:54:22.197Z,13.40
2019-03-20T12:55:22.412Z,13.42
2019-03-20T12:56:22.708Z,13.60
2019-03-20T12:57:23.022Z,13.75
2019-03-20T12:58:23.347Z,13.82
2019-03-20T12:59:23.664Z,13.85
2019-03-20T13:00:23.994Z,13.78
2019-03-20T13:01:24.311Z,13.55
2019-03-20T13:02:24.642Z,13.47
2019-03-20T13:03:24.989Z,13.54
2019-03-20T13:04:25.253Z,13.60
2019-03-20T13:05:25.586Z,13.52
2019-03-20T13:06:25.917Z,13.47
2019-03-20T13:07:26.232Z,13.42
2019-03-20T13:08:26.586Z,13.58
2019-03-20T13:09:26.864Z,13.65
2019-03-20T13:10:27.208Z,13.65